sensor_id;sensor_type;location;lat;lon;timestamp;pressure;altitude;pressure_sealevel;temperature
53412;BMP280;39307;52.870;13.660;2023-04-06T00:01:14;101608.66;;;3.65
53412;BMP280;39307;52.870;13.660;2023-04-06T00:03:41;101609.94;;;3.70
53412;BMP280;39307;52.870;13.660;2023-04-06T00:06:07;101600.75;;;3.66
53412;BMP280;39307;52.870;13.660;2023-04-06T00:08:33;101605.00;;;3.67
53412;BMP280;39307;52.870;13.660;2023-04-06T00:11:00;101602.97;;;3.60
53412;BMP280;39307;52.870;13.660;2023-04-06T00:13:26;101602.88;;;3.61
53412;BMP280;39307;52.870;13.660;2023-04-06T00:15:53;101600.97;;;3.63
53412;BMP280;39307;52.870;13.660;2023-04-06T00:18:19;101596.50;;;3.65
53412;BMP280;39307;52.870;13.660;2023-04-06T00:20:45;101598.75;;;3.48
53412;BMP280;39307;52.870;13.660;2023-04-06T00:23:11;101607.31;;;3.48
53412;BMP280;39307;52.870;13.660;2023-04-06T00:25:37;101601.69;;;3.44
53412;BMP280;39307;52.870;13.660;2023-04-06T00:28:03;101599.09;;;3.54
53412;BMP280;39307;52.870;13.660;2023-04-06T00:30:30;101602.88;;;3.40
53412;BMP280;39307;52.870;13.660;2023-04-06T00:32:56;101598.88;;;3.46
53412;BMP280;39307;52.870;13.660;2023-04-06T00:35:22;101596.63;;;3.53
53412;BMP280;39307;52.870;13.660;2023-04-06T00:37:48;101592.53;;;3.40
53412;BMP280;39307;52.870;13.660;2023-04-06T00:40:15;101594.03;;;3.31
53412;BMP280;39307;52.870;13.660;2023-04-06T00:42:41;101590.03;;;3.38
53412;BMP280;39307;52.870;13.660;2023-04-06T00:45:08;101589.19;;;3.27
53412;BMP280;39307;52.870;13.660;2023-04-06T00:47:35;101592.59;;;3.27
53412;BMP280;39307;52.870;13.660;2023-04-06T00:50:01;101592.63;;;3.16
53412;BMP280;39307;52.870;13.660;2023-04-06T00:52:27;101590.16;;;3.26
53412;BMP280;39307;52.870;13.660;2023-04-06T00:54:53;101592.25;;;3.21
53412;BMP280;39307;52.870;13.660;2023-04-06T00:57:20;101593.78;;;3.13
53412;BMP280;39307;52.870;13.660;2023-04-06T00:59:46;101587.31;;;3.18
53412;BMP280;39307;52.870;13.660;2023-04-06T01:02:12;101591.06;;;3.14
53412;BMP280;39307;52.870;13.660;2023-04-06T01:04:39;101580.22;;;3.09
53412;BMP280;39307;52.870;13.660;2023-04-06T01:07:05;101580.97;;;3.11
53412;BMP280;39307;52.870;13.660;2023-04-06T01:09:32;101583.78;;;3.08
53412;BMP280;39307;52.870;13.660;2023-04-06T01:11:58;101580.97;;;3.00
53412;BMP280;39307;52.870;13.660;2023-04-06T01:14:25;101575.53;;;2.92
53412;BMP280;39307;52.870;13.660;2023-04-06T01:16:51;101580.19;;;2.87
53412;BMP280;39307;52.870;13.660;2023-04-06T01:19:18;101574.78;;;2.80
53412;BMP280;39307;52.870;13.660;2023-04-06T01:21:44;101575.59;;;2.80
53412;BMP280;39307;52.870;13.660;2023-04-06T01:24:10;101579.97;;;2.80
53412;BMP280;39307;52.870;13.660;2023-04-06T01:26:39;101579.97;;;2.80
53412;BMP280;39307;52.870;13.660;2023-04-06T01:29:06;101573.13;;;2.79
53412;BMP280;39307;52.870;13.660;2023-04-06T01:31:32;101581.72;;;2.79
53412;BMP280;39307;52.870;13.660;2023-04-06T01:33:58;101578.97;;;2.70
53412;BMP280;39307;52.870;13.660;2023-04-06T01:36:24;101582.50;;;2.69
53412;BMP280;39307;52.870;13.660;2023-04-06T01:38:50;101585.31;;;2.66
53412;BMP280;39307;52.870;13.660;2023-04-06T01:41:17;101578.59;;;2.63
53412;BMP280;39307;52.870;13.660;2023-04-06T01:43:44;101582.84;;;2.64
53412;BMP280;39307;52.870;13.660;2023-04-06T01:46:10;101588.34;;;2.60
53412;BMP280;39307;52.870;13.660;2023-04-06T01:48:36;101587.28;;;2.52
53412;BMP280;39307;52.870;13.660;2023-04-06T01:51:03;101581.69;;;2.45
53412;BMP280;39307;52.870;13.660;2023-04-06T01:53:29;101586.19;;;2.43
53412;BMP280;39307;52.870;13.660;2023-04-06T01:55:55;101587.59;;;2.47
53412;BMP280;39307;52.870;13.660;2023-04-06T01:58:21;101581.00;;;2.43
53412;BMP280;39307;52.870;13.660;2023-04-06T02:00:47;101576.66;;;2.44
53412;BMP280;39307;52.870;13.660;2023-04-06T02:03:13;101587.09;;;2.42
53412;BMP280;39307;52.870;13.660;2023-04-06T02:05:40;101575.41;;;2.49
53412;BMP280;39307;52.870;13.660;2023-04-06T02:08:06;101575.50;;;2.48
53412;BMP280;39307;52.870;13.660;2023-04-06T02:10:33;101573.13;;;2.45
53412;BMP280;39307;52.870;13.660;2023-04-06T02:13:00;101581.22;;;2.40
53412;BMP280;39307;52.870;13.660;2023-04-06T02:15:26;101586.84;;;2.34
53412;BMP280;39307;52.870;13.660;2023-04-06T02:17:53;101586.94;;;2.33
53412;BMP280;39307;52.870;13.660;2023-04-06T02:20:19;101583.97;;;2.27
53412;BMP280;39307;52.870;13.660;2023-04-06T02:22:45;101579.16;;;2.22
53412;BMP280;39307;52.870;13.660;2023-04-06T02:25:11;101579.69;;;2.15
53412;BMP280;39307;52.870;13.660;2023-04-06T02:27:37;101577.31;;;2.12
53412;BMP280;39307;52.870;13.660;2023-04-06T02:30:04;101574.63;;;2.13
53412;BMP280;39307;52.870;13.660;2023-04-06T02:32:30;101575.16;;;2.06
53412;BMP280;39307;52.870;13.660;2023-04-06T02:34:57;101578.91;;;2.02
53412;BMP280;39307;52.870;13.660;2023-04-06T02:37:23;101567.25;;;1.97
53412;BMP280;39307;52.870;13.660;2023-04-06T02:39:49;101576.75;;;1.96
53412;BMP280;39307;52.870;13.660;2023-04-06T02:42:16;101568.31;;;1.94
53412;BMP280;39307;52.870;13.660;2023-04-06T02:44:42;101574.41;;;1.93
53412;BMP280;39307;52.870;13.660;2023-04-06T02:47:09;101569.22;;;1.93
53412;BMP280;39307;52.870;13.660;2023-04-06T02:49:35;101583.09;;;1.92
53412;BMP280;39307;52.870;13.660;2023-04-06T02:52:02;101579.69;;;1.92
53412;BMP280;39307;52.870;13.660;2023-04-06T02:54:28;101590.34;;;1.75
53412;BMP280;39307;52.870;13.660;2023-04-06T02:56:55;101588.81;;;1.72
53412;BMP280;39307;52.870;13.660;2023-04-06T02:59:22;101596.47;;;1.74
53412;BMP280;39307;52.870;13.660;2023-04-06T03:01:48;101590.78;;;1.69
53412;BMP280;39307;52.870;13.660;2023-04-06T03:04:14;101592.97;;;1.63
53412;BMP280;39307;52.870;13.660;2023-04-06T03:06:40;101592.03;;;1.64
53412;BMP280;39307;52.870;13.660;2023-04-06T03:09:06;101587.41;;;1.56
53412;BMP280;39307;52.870;13.660;2023-04-06T03:11:32;101596.19;;;1.54
53412;BMP280;39307;52.870;13.660;2023-04-06T03:13:59;101597.22;;;1.51
53412;BMP280;39307;52.870;13.660;2023-04-06T03:16:27;101587.09;;;1.48
53412;BMP280;39307;52.870;13.660;2023-04-06T03:18:53;101591.22;;;1.51
53412;BMP280;39307;52.870;13.660;2023-04-06T03:21:19;101590.41;;;1.50
53412;BMP280;39307;52.870;13.660;2023-04-06T03:23:45;101589.66;;;1.48
53412;BMP280;39307;52.870;13.660;2023-04-06T03:26:12;101597.22;;;1.39
53412;BMP280;39307;52.870;13.660;2023-04-06T03:28:38;101596.72;;;1.34
53412;BMP280;39307;52.870;13.660;2023-04-06T03:31:04;101603.00;;;1.30
53412;BMP280;39307;52.870;13.660;2023-04-06T03:33:30;101599.72;;;1.28
53412;BMP280;39307;52.870;13.660;2023-04-06T03:35:56;101605.38;;;1.33
53412;BMP280;39307;52.870;13.660;2023-04-06T03:38:22;101604.88;;;1.28
53412;BMP280;39307;52.870;13.660;2023-04-06T03:40:49;101608.38;;;1.27
53412;BMP280;39307;52.870;13.660;2023-04-06T03:43:15;101609.50;;;1.23
53412;BMP280;39307;52.870;13.660;2023-04-06T03:45:41;101611.59;;;1.18
53412;BMP280;39307;52.870;13.660;2023-04-06T03:48:07;101609.22;;;1.15
53412;BMP280;39307;52.870;13.660;2023-04-06T03:50:33;101614.19;;;1.18
53412;BMP280;39307;52.870;13.660;2023-04-06T03:52:59;101622.13;;;1.15
53412;BMP280;39307;52.870;13.660;2023-04-06T03:55:26;101625.41;;;1.17
53412;BMP280;39307;52.870;13.660;2023-04-06T03:57:52;101629.00;;;1.15
53412;BMP280;39307;52.870;13.660;2023-04-06T04:00:18;101632.63;;;1.13
53412;BMP280;39307;52.870;13.660;2023-04-06T04:02:44;101632.09;;;1.08
53412;BMP280;39307;52.870;13.660;2023-04-06T04:05:11;101634.47;;;1.11
53412;BMP280;39307;52.870;13.660;2023-04-06T04:07:37;101635.00;;;1.03
53412;BMP280;39307;52.870;13.660;2023-04-06T04:10:03;101629.09;;;1.01
53412;BMP280;39307;52.870;13.660;2023-04-06T04:12:30;101637.34;;;0.94
53412;BMP280;39307;52.870;13.660;2023-04-06T04:14:56;101646.75;;;0.95
53412;BMP280;39307;52.870;13.660;2023-04-06T04:17:22;101641.78;;;0.92
53412;BMP280;39307;52.870;13.660;2023-04-06T04:19:49;101638.59;;;0.88
53412;BMP280;39307;52.870;13.660;2023-04-06T04:22:15;101646.13;;;0.91
53412;BMP280;39307;52.870;13.660;2023-04-06T04:24:41;101640.75;;;0.94
53412;BMP280;39307;52.870;13.660;2023-04-06T04:27:07;101644.38;;;0.92
53412;BMP280;39307;52.870;13.660;2023-04-06T04:29:34;101642.06;;;0.87
53412;BMP280;39307;52.870;13.660;2023-04-06T04:32:00;101639.59;;;0.86
53412;BMP280;39307;52.870;13.660;2023-04-06T04:34:26;101651.06;;;0.82
53412;BMP280;39307;52.870;13.660;2023-04-06T04:36:52;101648.56;;;0.81
53412;BMP280;39307;52.870;13.660;2023-04-06T04:39:18;101655.47;;;0.80
53412;BMP280;39307;52.870;13.660;2023-04-06T04:41:45;101649.72;;;0.89
53412;BMP280;39307;52.870;13.660;2023-04-06T04:44:11;101651.25;;;0.79
53412;BMP280;39307;52.870;13.660;2023-04-06T04:46:37;101647.31;;;0.74
53412;BMP280;39307;52.870;13.660;2023-04-06T04:49:03;101649.66;;;0.64
53412;BMP280;39307;52.870;13.660;2023-04-06T04:51:29;101648.56;;;0.55
53412;BMP280;39307;52.870;13.660;2023-04-06T04:53:56;101648.81;;;0.52
53412;BMP280;39307;52.870;13.660;2023-04-06T04:56:23;101649.63;;;0.52
53412;BMP280;39307;52.870;13.660;2023-04-06T04:58:49;101654.03;;;0.50
53412;BMP280;39307;52.870;13.660;2023-04-06T05:01:15;101655.88;;;0.48
53412;BMP280;39307;52.870;13.660;2023-04-06T05:03:42;101652.47;;;0.48
53412;BMP280;39307;52.870;13.660;2023-04-06T05:06:08;101661.75;;;0.50
53412;BMP280;39307;52.870;13.660;2023-04-06T05:08:34;101663.31;;;0.53
53412;BMP280;39307;52.870;13.660;2023-04-06T05:11:00;101658.69;;;0.57
53412;BMP280;39307;52.870;13.660;2023-04-06T05:13:27;101664.78;;;0.57
53412;BMP280;39307;52.870;13.660;2023-04-06T05:15:53;101669.19;;;0.55
53412;BMP280;39307;52.870;13.660;2023-04-06T05:18:19;101675.47;;;0.51
53412;BMP280;39307;52.870;13.660;2023-04-06T05:20:46;101672.19;;;0.49
53412;BMP280;39307;52.870;13.660;2023-04-06T05:23:13;101662.69;;;0.49
53412;BMP280;39307;52.870;13.660;2023-04-06T05:25:39;101669.59;;;0.49
53412;BMP280;39307;52.870;13.660;2023-04-06T05:28:06;101670.50;;;0.48
53412;BMP280;39307;52.870;13.660;2023-04-06T05:30:32;101667.75;;;0.51
53412;BMP280;39307;52.870;13.660;2023-04-06T05:32:58;101671.06;;;0.53
53412;BMP280;39307;52.870;13.660;2023-04-06T05:35:25;101667.75;;;0.51
53412;BMP280;39307;52.870;13.660;2023-04-06T05:37:51;101677.34;;;0.49
53412;BMP280;39307;52.870;13.660;2023-04-06T05:40:17;101673.44;;;0.56
53412;BMP280;39307;52.870;13.660;2023-04-06T05:42:43;101679.78;;;0.50
53412;BMP280;39307;52.870;13.660;2023-04-06T05:45:11;101681.25;;;0.54
53412;BMP280;39307;52.870;13.660;2023-04-06T05:47:37;101678.59;;;0.56
53412;BMP280;39307;52.870;13.660;2023-04-06T05:50:04;101675.38;;;0.52
53412;BMP280;39307;52.870;13.660;2023-04-06T05:52:30;101678.59;;;0.56
53412;BMP280;39307;52.870;13.660;2023-04-06T05:54:56;101680.22;;;0.57
53412;BMP280;39307;52.870;13.660;2023-04-06T05:57:23;101682.91;;;0.55
53412;BMP280;39307;52.870;13.660;2023-04-06T05:59:49;101684.56;;;0.56
53412;BMP280;39307;52.870;13.660;2023-04-06T06:02:15;101688.31;;;0.64
53412;BMP280;39307;52.870;13.660;2023-04-06T06:04:41;101693.34;;;0.66
53412;BMP280;39307;52.870;13.660;2023-04-06T06:07:07;101692.66;;;0.64
53412;BMP280;39307;52.870;13.660;2023-04-06T06:09:34;101688.56;;;0.74
53412;BMP280;39307;52.870;13.660;2023-04-06T06:12:00;101686.59;;;0.77
53412;BMP280;39307;52.870;13.660;2023-04-06T06:14:26;101688.34;;;0.77
53412;BMP280;39307;52.870;13.660;2023-04-06T06:16:52;101683.91;;;0.79
53412;BMP280;39307;52.870;13.660;2023-04-06T06:19:19;101678.28;;;0.86
53412;BMP280;39307;52.870;13.660;2023-04-06T06:21:45;101687.25;;;0.93
53412;BMP280;39307;52.870;13.660;2023-04-06T06:24:11;101680.06;;;0.98
53412;BMP280;39307;52.870;13.660;2023-04-06T06:26:37;101685.84;;;1.01
53412;BMP280;39307;52.870;13.660;2023-04-06T06:29:04;101689.78;;;1.07
53412;BMP280;39307;52.870;13.660;2023-04-06T06:31:30;101680.28;;;1.19
53412;BMP280;39307;52.870;13.660;2023-04-06T06:33:56;101679.16;;;1.23
53412;BMP280;39307;52.870;13.660;2023-04-06T06:36:22;101682.97;;;1.30
53412;BMP280;39307;52.870;13.660;2023-04-06T06:38:48;101689.41;;;1.37
53412;BMP280;39307;52.870;13.660;2023-04-06T06:41:15;101677.84;;;1.55
53412;BMP280;39307;52.870;13.660;2023-04-06T06:43:42;101681.66;;;1.62
53412;BMP280;39307;52.870;13.660;2023-04-06T06:46:08;101685.25;;;1.72
53412;BMP280;39307;52.870;13.660;2023-04-06T06:48:34;101679.34;;;1.82
53412;BMP280;39307;52.870;13.660;2023-04-06T06:51:01;101688.03;;;1.93
53412;BMP280;39307;52.870;13.660;2023-04-06T06:53:27;101685.75;;;2.01
53412;BMP280;39307;52.870;13.660;2023-04-06T06:55:53;101687.78;;;2.08
53412;BMP280;39307;52.870;13.660;2023-04-06T06:58:19;101681.16;;;2.17
53412;BMP280;39307;52.870;13.660;2023-04-06T07:00:46;101686.63;;;2.25
53412;BMP280;39307;52.870;13.660;2023-04-06T07:03:12;101686.19;;;2.30
53412;BMP280;39307;52.870;13.660;2023-04-06T07:05:38;101671.56;;;2.42
53412;BMP280;39307;52.870;13.660;2023-04-06T07:08:05;101685.38;;;2.53
53412;BMP280;39307;52.870;13.660;2023-04-06T07:10:31;101672.97;;;2.58
53412;BMP280;39307;52.870;13.660;2023-04-06T07:12:57;101675.94;;;2.64
53412;BMP280;39307;52.870;13.660;2023-04-06T07:15:23;101669.97;;;2.75
53412;BMP280;39307;52.870;13.660;2023-04-06T07:17:50;101678.25;;;2.90
53412;BMP280;39307;52.870;13.660;2023-04-06T07:20:16;101660.66;;;3.06
53412;BMP280;39307;52.870;13.660;2023-04-06T07:22:43;101668.59;;;3.16
53412;BMP280;39307;52.870;13.660;2023-04-06T07:25:09;101663.78;;;3.33
53412;BMP280;39307;52.870;13.660;2023-04-06T07:27:36;101670.66;;;3.44
53412;BMP280;39307;52.870;13.660;2023-04-06T07:30:02;101662.44;;;3.61
53412;BMP280;39307;52.870;13.660;2023-04-06T07:32:29;101669.97;;;3.75
53412;BMP280;39307;52.870;13.660;2023-04-06T07:34:56;101664.78;;;3.86
53412;BMP280;39307;52.870;13.660;2023-04-06T07:37:22;101663.59;;;3.90
53412;BMP280;39307;52.870;13.660;2023-04-06T07:39:48;101661.91;;;4.21
53412;BMP280;39307;52.870;13.660;2023-04-06T07:42:14;101649.81;;;4.84
53412;BMP280;39307;52.870;13.660;2023-04-06T07:44:40;101643.75;;;5.64
53412;BMP280;39307;52.870;13.660;2023-04-06T07:47:07;101636.25;;;6.29
53412;BMP280;39307;52.870;13.660;2023-04-06T07:49:34;101626.41;;;7.07
53412;BMP280;39307;52.870;13.660;2023-04-06T07:52:00;101622.91;;;7.80
53412;BMP280;39307;52.870;13.660;2023-04-06T07:54:26;101622.09;;;8.50
53412;BMP280;39307;52.870;13.660;2023-04-06T07:56:52;101618.97;;;8.98
53412;BMP280;39307;52.870;13.660;2023-04-06T07:59:18;101619.28;;;9.45
53412;BMP280;39307;52.870;13.660;2023-04-06T08:01:44;101609.94;;;9.93
53412;BMP280;39307;52.870;13.660;2023-04-06T08:04:11;101606.78;;;10.46
53412;BMP280;39307;52.870;13.660;2023-04-06T08:06:37;101613.06;;;10.53
53412;BMP280;39307;52.870;13.660;2023-04-06T08:09:03;101612.91;;;10.78
53412;BMP280;39307;52.870;13.660;2023-04-06T08:11:29;101616.69;;;11.07
53412;BMP280;39307;52.870;13.660;2023-04-06T08:13:56;101608.09;;;11.60
53412;BMP280;39307;52.870;13.660;2023-04-06T08:16:23;101614.19;;;11.98
53412;BMP280;39307;52.870;13.660;2023-04-06T08:18:49;101604.44;;;12.44
53412;BMP280;39307;52.870;13.660;2023-04-06T08:21:16;101604.06;;;12.69
53412;BMP280;39307;52.870;13.660;2023-04-06T08:23:42;101600.66;;;12.91
53412;BMP280;39307;52.870;13.660;2023-04-06T08:26:08;101600.13;;;13.32
53412;BMP280;39307;52.870;13.660;2023-04-06T08:28:34;101609.09;;;13.52
53412;BMP280;39307;52.870;13.660;2023-04-06T08:31:05;101593.06;;;13.89
53412;BMP280;39307;52.870;13.660;2023-04-06T08:33:31;101597.41;;;14.11
53412;BMP280;39307;52.870;13.660;2023-04-06T08:35:57;101596.59;;;14.11
53412;BMP280;39307;52.870;13.660;2023-04-06T08:38:24;101589.50;;;14.25
53412;BMP280;39307;52.870;13.660;2023-04-06T08:40:50;101599.41;;;14.44
53412;BMP280;39307;52.870;13.660;2023-04-06T08:43:17;101591.22;;;14.74
53412;BMP280;39307;52.870;13.660;2023-04-06T08:45:47;101591.88;;;14.82
53412;BMP280;39307;52.870;13.660;2023-04-06T08:48:14;101585.19;;;14.80
53412;BMP280;39307;52.870;13.660;2023-04-06T08:50:41;101595.41;;;14.48
53412;BMP280;39307;52.870;13.660;2023-04-06T08:53:08;101590.22;;;14.40
53412;BMP280;39307;52.870;13.660;2023-04-06T08:55:34;101597.94;;;14.07
53412;BMP280;39307;52.870;13.660;2023-04-06T08:58:01;101606.59;;;13.86
53412;BMP280;39307;52.870;13.660;2023-04-06T09:00:28;101607.47;;;13.00
53412;BMP280;39307;52.870;13.660;2023-04-06T09:02:55;101601.78;;;12.74
53412;BMP280;39307;52.870;13.660;2023-04-06T09:05:24;101604.72;;;12.71
53412;BMP280;39307;52.870;13.660;2023-04-06T09:07:51;101596.63;;;12.81
53412;BMP280;39307;52.870;13.660;2023-04-06T09:10:17;101596.34;;;12.76
53412;BMP280;39307;52.870;13.660;2023-04-06T09:12:43;101594.78;;;13.03
53412;BMP280;39307;52.870;13.660;2023-04-06T09:15:19;101599.41;;;13.52
53412;BMP280;39307;52.870;13.660;2023-04-06T09:17:45;101585.59;;;13.93
53412;BMP280;39307;52.870;13.660;2023-04-06T09:20:11;101580.53;;;14.06
53412;BMP280;39307;52.870;13.660;2023-04-06T09:22:38;101583.00;;;14.07
53412;BMP280;39307;52.870;13.660;2023-04-06T09:25:06;101573.31;;;14.28
53412;BMP280;39307;52.870;13.660;2023-04-06T09:27:39;101571.72;;;14.13
53412;BMP280;39307;52.870;13.660;2023-04-06T09:30:07;101571.22;;;14.24
53412;BMP280;39307;52.870;13.660;2023-04-06T09:32:44;101569.09;;;14.13
53412;BMP280;39307;52.870;13.660;2023-04-06T09:35:11;101576.44;;;14.03
53412;BMP280;39307;52.870;13.660;2023-04-06T09:37:37;101568.91;;;13.86
53412;BMP280;39307;52.870;13.660;2023-04-06T09:40:07;101575.00;;;13.86
53412;BMP280;39307;52.870;13.660;2023-04-06T09:42:34;101580.63;;;13.55
53412;BMP280;39307;52.870;13.660;2023-04-06T09:45:01;101570.72;;;13.43
53412;BMP280;39307;52.870;13.660;2023-04-06T09:47:28;101580.34;;;13.36
53412;BMP280;39307;52.870;13.660;2023-04-06T09:49:59;101567.94;;;13.44
53412;BMP280;39307;52.870;13.660;2023-04-06T09:52:45;101570.81;;;13.49
53412;BMP280;39307;52.870;13.660;2023-04-06T09:55:29;101567.84;;;13.66
53412;BMP280;39307;52.870;13.660;2023-04-06T09:58:06;101551.25;;;14.15
53412;BMP280;39307;52.870;13.660;2023-04-06T10:00:59;101551.19;;;14.43
53412;BMP280;39307;52.870;13.660;2023-04-06T10:03:39;101547.34;;;14.67
53412;BMP280;39307;52.870;13.660;2023-04-06T10:06:13;101543.88;;;14.87
53412;BMP280;39307;52.870;13.660;2023-04-06T10:08:40;101546.91;;;14.43
53412;BMP280;39307;52.870;13.660;2023-04-06T10:11:08;101555.75;;;13.86
53412;BMP280;39307;52.870;13.660;2023-04-06T10:13:34;101564.38;;;13.52
53412;BMP280;39307;52.870;13.660;2023-04-06T10:16:02;101553.25;;;13.50
53412;BMP280;39307;52.870;13.660;2023-04-06T10:18:29;101548.88;;;13.71
53412;BMP280;39307;52.870;13.660;2023-04-06T10:21:09;101552.88;;;13.38
53412;BMP280;39307;52.870;13.660;2023-04-06T10:23:48;101556.94;;;13.27
53412;BMP280;39307;52.870;13.660;2023-04-06T10:26:19;101562.44;;;13.03
53412;BMP280;39307;52.870;13.660;2023-04-06T10:28:47;101561.00;;;12.78
53412;BMP280;39307;52.870;13.660;2023-04-06T10:31:13;101554.25;;;12.84
53412;BMP280;39307;52.870;13.660;2023-04-06T10:33:39;101553.13;;;12.78
53412;BMP280;39307;52.870;13.660;2023-04-06T10:36:21;101554.25;;;12.62
53412;BMP280;39307;52.870;13.660;2023-04-06T10:38:58;101550.91;;;12.90
53412;BMP280;39307;52.870;13.660;2023-04-06T10:41:50;101557.44;;;12.71
53412;BMP280;39307;52.870;13.660;2023-04-06T10:44:24;101550.38;;;12.72
53412;BMP280;39307;52.870;13.660;2023-04-06T10:46:57;101545.94;;;12.72
53412;BMP280;39307;52.870;13.660;2023-04-06T10:49:25;101549.38;;;12.73
53412;BMP280;39307;52.870;13.660;2023-04-06T10:51:54;101548.63;;;12.42
53412;BMP280;39307;52.870;13.660;2023-04-06T10:54:22;101544.13;;;12.51
53412;BMP280;39307;52.870;13.660;2023-04-06T10:56:50;101542.66;;;12.48
53412;BMP280;39307;52.870;13.660;2023-04-06T10:59:20;101540.63;;;12.36
53412;BMP280;39307;52.870;13.660;2023-04-06T11:01:46;101546.09;;;12.49
53412;BMP280;39307;52.870;13.660;2023-04-06T11:04:17;101545.03;;;12.43
53412;BMP280;39307;52.870;13.660;2023-04-06T11:06:47;101547.38;;;12.09
53412;BMP280;39307;52.870;13.660;2023-04-06T11:09:24;101546.78;;;11.99
53412;BMP280;39307;52.870;13.660;2023-04-06T11:11:50;101545.41;;;12.11
53412;BMP280;39307;52.870;13.660;2023-04-06T11:14:17;101534.56;;;12.36
53412;BMP280;39307;52.870;13.660;2023-04-06T11:16:47;101541.78;;;12.11
53412;BMP280;39307;52.870;13.660;2023-04-06T11:19:14;101531.25;;;12.19
53412;BMP280;39307;52.870;13.660;2023-04-06T11:21:57;101528.06;;;12.24
53412;BMP280;39307;52.870;13.660;2023-04-06T11:24:31;101547.03;;;12.11
53412;BMP280;39307;52.870;13.660;2023-04-06T11:26:58;101540.94;;;11.89
53412;BMP280;39307;52.870;13.660;2023-04-06T11:29:27;101537.47;;;11.88
53412;BMP280;39307;52.870;13.660;2023-04-06T11:32:06;101535.72;;;12.11
53412;BMP280;39307;52.870;13.660;2023-04-06T11:34:39;101531.69;;;12.01
53412;BMP280;39307;52.870;13.660;2023-04-06T11:37:11;101515.03;;;12.16
53412;BMP280;39307;52.870;13.660;2023-04-06T11:39:50;101521.00;;;12.24
53412;BMP280;39307;52.870;13.660;2023-04-06T11:42:27;101523.81;;;12.45
53412;BMP280;39307;52.870;13.660;2023-04-06T11:44:55;101517.41;;;12.25
53412;BMP280;39307;52.870;13.660;2023-04-06T11:47:34;101519.22;;;12.47
53412;BMP280;39307;52.870;13.660;2023-04-06T11:52:34;101517.53;;;12.54
53412;BMP280;39307;52.870;13.660;2023-04-06T11:55:14;101514.03;;;12.39
53412;BMP280;39307;52.870;13.660;2023-04-06T11:57:41;101510.34;;;12.48
53412;BMP280;39307;52.870;13.660;2023-04-06T12:00:10;101511.78;;;12.72
53412;BMP280;39307;52.870;13.660;2023-04-06T12:02:37;101505.53;;;12.73
53412;BMP280;39307;52.870;13.660;2023-04-06T12:05:05;101509.84;;;12.67
53412;BMP280;39307;52.870;13.660;2023-04-06T12:07:32;101510.56;;;12.61
53412;BMP280;39307;52.870;13.660;2023-04-06T12:09:59;101507.56;;;12.64
53412;BMP280;39307;52.870;13.660;2023-04-06T12:12:25;101512.31;;;12.90
53412;BMP280;39307;52.870;13.660;2023-04-06T12:14:51;101499.00;;;12.92
53412;BMP280;39307;52.870;13.660;2023-04-06T12:17:19;101501.13;;;12.88
53412;BMP280;39307;52.870;13.660;2023-04-06T12:19:45;101499.22;;;12.82
53412;BMP280;39307;52.870;13.660;2023-04-06T12:22:11;101502.06;;;12.95
53412;BMP280;39307;52.870;13.660;2023-04-06T12:24:37;101495.34;;;12.93
53412;BMP280;39307;52.870;13.660;2023-04-06T12:27:03;101501.13;;;12.88
53412;BMP280;39307;52.870;13.660;2023-04-06T12:29:31;101508.03;;;12.67
53412;BMP280;39307;52.870;13.660;2023-04-06T12:31:57;101499.69;;;12.64
53412;BMP280;39307;52.870;13.660;2023-04-06T12:34:23;101503.72;;;12.52
53412;BMP280;39307;52.870;13.660;2023-04-06T12:36:49;101500.88;;;12.39
53412;BMP280;39307;52.870;13.660;2023-04-06T12:39:15;101508.00;;;12.31
53412;BMP280;39307;52.870;13.660;2023-04-06T12:41:42;101498.19;;;12.25
53412;BMP280;39307;52.870;13.660;2023-04-06T12:44:08;101497.00;;;12.13
53412;BMP280;39307;52.870;13.660;2023-04-06T12:46:34;101494.84;;;12.16
53412;BMP280;39307;52.870;13.660;2023-04-06T12:49:00;101499.75;;;12.19
53412;BMP280;39307;52.870;13.660;2023-04-06T12:51:30;101495.22;;;12.28
53412;BMP280;39307;52.870;13.660;2023-04-06T12:53:56;101494.03;;;12.16
53412;BMP280;39307;52.870;13.660;2023-04-06T12:56:22;101490.66;;;12.00
53412;BMP280;39307;52.870;13.660;2023-04-06T12:58:51;101487.41;;;11.98
53412;BMP280;39307;52.870;13.660;2023-04-06T13:01:17;101491.59;;;12.07
53412;BMP280;39307;52.870;13.660;2023-04-06T13:03:44;101496.31;;;11.89
53412;BMP280;39307;52.870;13.660;2023-04-06T13:06:10;101487.06;;;12.01
53412;BMP280;39307;52.870;13.660;2023-04-06T13:08:38;101487.41;;;12.20
53412;BMP280;39307;52.870;13.660;2023-04-06T13:11:04;101481.94;;;12.07
53412;BMP280;39307;52.870;13.660;2023-04-06T13:13:34;101488.25;;;12.20
53412;BMP280;39307;52.870;13.660;2023-04-06T13:16:08;101481.63;;;12.24
53412;BMP280;39307;52.870;13.660;2023-04-06T13:18:35;101480.34;;;12.20
53412;BMP280;39307;52.870;13.660;2023-04-06T13:21:02;101479.78;;;12.11
53412;BMP280;39307;52.870;13.660;2023-04-06T13:23:29;101471.69;;;11.98
53412;BMP280;39307;52.870;13.660;2023-04-06T13:26:05;101469.28;;;12.11
53412;BMP280;39307;52.870;13.660;2023-04-06T13:28:32;101471.66;;;12.20
53412;BMP280;39307;52.870;13.660;2023-04-06T13:30:59;101469.09;;;12.34
53412;BMP280;39307;52.870;13.660;2023-04-06T13:33:26;101470.97;;;12.26
53412;BMP280;39307;52.870;13.660;2023-04-06T13:35:53;101459.75;;;12.10
53412;BMP280;39307;52.870;13.660;2023-04-06T13:38:19;101461.06;;;12.13
53412;BMP280;39307;52.870;13.660;2023-04-06T13:40:45;101468.97;;;12.06
53412;BMP280;39307;52.870;13.660;2023-04-06T13:43:12;101467.81;;;12.08
53412;BMP280;39307;52.870;13.660;2023-04-06T13:45:38;101469.81;;;11.76
53412;BMP280;39307;52.870;13.660;2023-04-06T13:48:05;101473.13;;;11.70
53412;BMP280;39307;52.870;13.660;2023-04-06T13:50:32;101473.19;;;11.62
53412;BMP280;39307;52.870;13.660;2023-04-06T13:52:58;101461.56;;;11.87
53412;BMP280;39307;52.870;13.660;2023-04-06T13:55:25;101454.84;;;11.84